createdAt,value
2022-08-28T00:02:24.639Z,16.85
2022-08-28T00:05:11.023Z,17.65
2022-08-28T00:07:57.064Z,17.45
2022-08-28T00:10:43.645Z,17.65
2022-08-28T00:13:28.597Z,18.92
2022-08-28T00:16:13.949Z,17.77
2022-08-28T00:19:01.413Z,19.95
2022-08-28T00:21:46.572Z,19.25
2022-08-28T00:24:31.531Z,18.52
2022-08-28T00:27:35.822Z,19.08
2022-08-28T00:30:34.352Z,19.75
2022-08-28T00:33:33.593Z,20.42
2022-08-28T00:36:19.052Z,20.55
2022-08-28T00:39:05.610Z,20.15
2022-08-28T00:41:52.140Z,20.67
2022-08-28T00:44:44.354Z,22.50
2022-08-28T00:47:29.846Z,23.02
2022-08-28T00:50:17.966Z,23.27
2022-08-28T00:53:03.659Z,22.73
2022-08-28T00:55:49.726Z,22.33
2022-08-28T00:58:34.563Z,21.95
2022-08-28T01:01:19.492Z,23.48
2022-08-28T01:04:05.728Z,24.63
2022-08-28T01:06:54.163Z,26.63
2022-08-28T01:09:44.353Z,24.88
2022-08-28T01:12:31.938Z,25.25
2022-08-28T01:15:20.020Z,24.42
2022-08-28T01:18:08.723Z,24.73
2022-08-28T01:21:04.954Z,23.90
2022-08-28T01:23:53.141Z,24.83
2022-08-28T01:26:37.924Z,26.92
2022-08-28T01:29:23.217Z,26.02
2022-08-28T01:32:09.208Z,25.23
2022-08-28T01:34:54.613Z,26.00
2022-08-28T01:37:40.241Z,26.95
2022-08-28T01:40:32.156Z,27.80
2022-08-28T01:43:20.824Z,27.70
2022-08-28T01:46:06.148Z,25.67
2022-08-28T01:48:51.187Z,26.67
2022-08-28T01:51:38.261Z,26.00
2022-08-28T01:54:24.779Z,25.42
2022-08-28T01:57:09.606Z,25.17
2022-08-28T01:59:54.822Z,24.92
2022-08-28T02:02:40.071Z,27.00
2022-08-28T02:05:27.805Z,27.13
2022-08-28T02:08:13.833Z,27.85
2022-08-28T02:10:59.004Z,28.88
2022-08-28T02:13:43.923Z,27.02
2022-08-28T02:16:29.502Z,26.10
2022-08-28T02:19:14.743Z,28.13
2022-08-28T02:21:59.935Z,28.63
2022-08-28T02:24:45.668Z,28.45
2022-08-28T02:27:30.468Z,28.00
2022-08-28T02:30:16.907Z,30.00
2022-08-28T02:33:02.387Z,28.63
2022-08-28T02:35:48.777Z,27.55
2022-08-28T02:38:33.703Z,28.17
2022-08-28T02:41:18.623Z,31.80
2022-08-28T02:44:04.106Z,31.75
2022-08-28T02:46:48.947Z,30.45
2022-08-28T02:49:35.571Z,30.35
2022-08-28T02:52:23.019Z,29.42
2022-08-28T02:55:10.884Z,28.85
2022-08-28T02:57:55.922Z,30.17
2022-08-28T03:00:40.849Z,30.50
2022-08-28T03:03:27.205Z,31.70
2022-08-28T03:06:13.113Z,29.55
2022-08-28T03:08:58.032Z,29.05
2022-08-28T03:11:42.632Z,29.58
2022-08-28T03:14:27.655Z,31.58
2022-08-28T03:17:12.726Z,31.27
2022-08-28T03:19:58.014Z,30.25
2022-08-28T03:23:01.317Z,29.38
2022-08-28T03:25:46.549Z,29.80
2022-08-28T03:28:40.954Z,31.38
2022-08-28T03:31:27.572Z,32.22
2022-08-28T03:34:12.856Z,32.38
2022-08-28T03:36:57.753Z,34.75
2022-08-28T03:39:43.175Z,33.25
2022-08-28T03:42:28.058Z,32.63
2022-08-28T03:45:13.511Z,33.80
2022-08-28T03:47:58.627Z,33.25
2022-08-28T03:50:44.084Z,35.05
2022-08-28T03:53:29.470Z,33.75
2022-08-28T03:56:21.422Z,35.00
2022-08-28T03:59:06.156Z,35.40
2022-08-28T04:01:51.561Z,34.65
2022-08-28T04:04:36.570Z,33.20
2022-08-28T04:07:21.999Z,35.30
2022-08-28T04:10:07.657Z,35.95
2022-08-28T04:12:53.449Z,35.55
2022-08-28T04:15:39.145Z,35.22
2022-08-28T04:18:24.108Z,36.90
2022-08-28T04:21:17.235Z,35.50
2022-08-28T04:24:03.053Z,37.13
2022-08-28T04:26:50.044Z,36.45
2022-08-28T04:29:35.083Z,36.88
2022-08-28T04:32:19.922Z,37.40
2022-08-28T04:35:07.464Z,38.38
2022-08-28T04:37:52.191Z,37.50
2022-08-28T04:40:40.837Z,37.13
2022-08-28T04:43:25.758Z,37.33
2022-08-28T04:46:13.764Z,35.45
2022-08-28T04:48:59.548Z,34.03
2022-08-28T04:51:44.250Z,36.42
2022-08-28T04:54:34.851Z,36.15
2022-08-28T04:57:19.915Z,36.30
2022-08-28T05:00:06.536Z,37.10
2022-08-28T05:02:51.193Z,38.58
2022-08-28T05:05:51.400Z,37.88
2022-08-28T05:08:36.240Z,36.05
2022-08-28T05:11:33.500Z,37.08
2022-08-28T05:14:21.212Z,39.20
2022-08-28T05:17:05.838Z,36.50
2022-08-28T05:19:51.685Z,37.42
2022-08-28T05:22:36.728Z,36.92
2022-08-28T05:25:21.769Z,34.97
2022-08-28T05:28:11.442Z,36.58
2022-08-28T05:31:08.806Z,37.53
2022-08-28T05:33:53.533Z,36.78
2022-08-28T05:36:39.077Z,37.47
2022-08-28T05:39:24.094Z,34.72
2022-08-28T05:42:09.005Z,35.95
2022-08-28T05:44:54.690Z,35.20
2022-08-28T05:47:39.692Z,36.47
2022-08-28T05:50:24.762Z,36.15
2022-08-28T05:53:09.945Z,36.05
2022-08-28T05:55:54.565Z,34.92
2022-08-28T05:58:39.987Z,36.47
2022-08-28T06:01:28.341Z,36.20
2022-08-28T06:04:17.398Z,34.83
2022-08-28T06:07:04.421Z,38.20
2022-08-28T06:09:49.456Z,35.70
2022-08-28T06:12:34.422Z,33.75
2022-08-28T06:15:19.377Z,33.53
2022-08-28T06:18:04.375Z,32.42
2022-08-28T06:20:49.660Z,30.52
2022-08-28T06:23:34.603Z,31.58
2022-08-28T06:26:19.504Z,29.75
2022-08-28T06:29:10.415Z,28.08
2022-08-28T06:31:59.221Z,27.23
2022-08-28T06:34:44.103Z,26.35
2022-08-28T06:37:29.275Z,24.27
2022-08-28T06:40:14.332Z,22.13
2022-08-28T06:42:59.768Z,20.65
2022-08-28T06:45:47.471Z,21.52
2022-08-28T06:48:32.637Z,21.60
2022-08-28T06:51:17.882Z,22.58
2022-08-28T06:54:02.790Z,23.05
2022-08-28T06:56:47.644Z,22.55
2022-08-28T06:59:32.978Z,23.25
2022-08-28T07:02:18.194Z,23.10
2022-08-28T07:05:03.867Z,24.15
2022-08-28T07:07:48.645Z,23.42
2022-08-28T07:10:33.427Z,22.08
2022-08-28T07:13:18.265Z,22.38
2022-08-28T07:16:03.559Z,20.38
2022-08-28T07:18:48.363Z,20.65
2022-08-28T07:21:38.131Z,20.70
2022-08-28T07:24:24.494Z,19.17
2022-08-28T07:27:09.386Z,15.90
2022-08-28T07:29:54.184Z,13.73
2022-08-28T07:32:39.303Z,13.85
2022-08-28T07:35:24.204Z,13.52
2022-08-28T07:38:09.344Z,13.88
2022-08-28T07:40:54.910Z,13.77
2022-08-28T07:43:58.068Z,14.35
2022-08-28T07:46:44.516Z,14.25
2022-08-28T07:49:30.758Z,15.75
2022-08-28T07:52:15.525Z,15.50
2022-08-28T07:55:00.845Z,16.23
2022-08-28T07:57:47.413Z,15.95
2022-08-28T08:00:32.368Z,15.02
2022-08-28T08:03:17.383Z,15.48
2022-08-28T08:06:04.382Z,16.05
2022-08-28T08:08:49.153Z,14.80
2022-08-28T08:11:34.802Z,14.80
2022-08-28T08:14:20.133Z,15.05
2022-08-28T08:17:07.427Z,14.98
2022-08-28T08:19:54.542Z,14.90
2022-08-28T08:22:39.642Z,14.43
2022-08-28T08:25:24.519Z,13.50
2022-08-28T08:28:09.596Z,13.85
2022-08-28T08:31:15.012Z,14.55
2022-08-28T08:34:03.003Z,13.48
2022-08-28T08:36:48.327Z,14.00
2022-08-28T08:39:34.689Z,12.52
2022-08-28T08:42:34.022Z,12.35
2022-08-28T08:45:23.278Z,13.18
2022-08-28T08:48:20.629Z,13.27
2022-08-28T08:51:19.967Z,12.98
2022-08-28T08:54:09.277Z,14.05
2022-08-28T08:59:41.342Z,12.13
2022-08-28T09:02:33.053Z,12.30
2022-08-28T09:05:33.189Z,12.68
2022-08-28T09:08:26.092Z,12.93
2022-08-28T09:11:17.561Z,10.57
2022-08-28T09:14:13.551Z,11.15
2022-08-28T09:16:59.407Z,10.82
2022-08-28T09:19:44.534Z,9.65
2022-08-28T09:22:29.579Z,10.80
2022-08-28T09:25:51.681Z,10.35
2022-08-28T09:28:40.165Z,9.95
2022-08-28T09:31:38.458Z,11.50
2022-08-28T09:34:23.504Z,10.45
2022-08-28T09:37:25.787Z,10.77
2022-08-28T09:43:27.987Z,10.80
2022-08-28T09:46:21.778Z,11.43
2022-08-28T09:49:13.008Z,11.20
2022-08-28T09:52:01.198Z,10.20
2022-08-28T09:54:48.021Z,9.43
2022-08-28T09:57:33.005Z,9.77
2022-08-28T10:00:18.001Z,8.90
2022-08-28T10:03:14.342Z,10.00
2022-08-28T10:06:07.896Z,10.05
2022-08-28T10:09:00.888Z,9.32
2022-08-28T10:12:04.210Z,8.43
2022-08-28T10:15:32.357Z,9.02
2022-08-28T10:18:35.978Z,8.75
2022-08-28T10:22:09.205Z,9.07
2022-08-28T10:25:17.496Z,9.30
2022-08-28T10:28:09.136Z,8.48
2022-08-28T10:31:03.685Z,9.40
2022-08-28T10:34:19.020Z,8.30
2022-08-28T10:37:12.278Z,8.23
2022-08-28T10:40:17.736Z,8.05
2022-08-28T10:43:20.759Z,8.77
2022-08-28T10:46:12.277Z,8.55
2022-08-28T10:49:06.559Z,8.55
2022-08-28T10:51:59.080Z,8.30
2022-08-28T10:54:57.054Z,8.50
2022-08-28T10:58:03.029Z,8.35
2022-08-28T11:00:48.920Z,7.85
2022-08-28T11:03:47.730Z,7.47
2022-08-28T11:06:40.922Z,7.40
2022-08-28T11:09:31.454Z,7.57
2022-08-28T11:12:16.404Z,7.43
2022-08-28T11:15:31.509Z,8.30
2022-08-28T11:18:40.766Z,7.38
2022-08-28T11:21:36.354Z,6.80
2022-08-28T11:27:35.271Z,7.25
2022-08-28T11:30:35.222Z,7.63
2022-08-28T11:33:42.245Z,7.07
2022-08-28T11:36:28.708Z,6.93
2022-08-28T11:39:13.152Z,7.32
2022-08-28T11:42:31.520Z,6.78
2022-08-28T11:45:21.749Z,6.88
2022-08-28T11:48:06.943Z,6.57
2022-08-28T11:50:59.717Z,6.50
2022-08-28T11:54:21.917Z,6.70
2022-08-28T11:57:26.981Z,7.78
2022-08-28T12:00:21.100Z,7.55
2022-08-28T12:03:06.116Z,7.00
2022-08-28T12:05:54.921Z,6.55
2022-08-28T12:08:58.541Z,7.00
2022-08-28T12:11:44.242Z,7.35
2022-08-28T12:14:29.224Z,7.78
2022-08-28T12:17:31.078Z,7.80
2022-08-28T12:20:30.512Z,6.45
2022-08-28T12:23:36.867Z,6.63
2022-08-28T12:26:29.532Z,6.22
2022-08-28T12:29:17.132Z,6.50
2022-08-28T12:32:24.419Z,6.35
2022-08-28T12:35:28.004Z,5.90
2022-08-28T12:38:20.366Z,5.22
2022-08-28T12:41:16.324Z,5.57
2022-08-28T12:44:01.465Z,6.20
2022-08-28T12:46:48.399Z,6.28
2022-08-28T12:49:36.492Z,6.40
2022-08-28T12:52:23.881Z,6.88
2022-08-28T12:55:08.809Z,6.55
2022-08-28T12:57:54.723Z,6.50
2022-08-28T13:00:54.194Z,7.75
2022-08-28T13:03:49.354Z,7.18
2022-08-28T13:06:38.998Z,6.35
2022-08-28T13:09:27.662Z,5.97
2022-08-28T13:12:23.462Z,7.30
2022-08-28T13:16:04.467Z,7.10
2022-08-28T13:18:52.233Z,6.38
2022-08-28T13:21:46.871Z,6.55
2022-08-28T13:24:34.603Z,6.28
2022-08-28T13:27:22.831Z,6.40
2022-08-28T13:30:23.502Z,5.53
2022-08-28T13:33:25.506Z,5.63
2022-08-28T13:36:22.005Z,5.80
2022-08-28T13:39:07.582Z,5.82
2022-08-28T13:41:55.878Z,5.80
2022-08-28T13:44:52.627Z,5.75
2022-08-28T13:47:37.648Z,5.28
2022-08-28T13:50:23.478Z,6.20
2022-08-28T13:53:08.589Z,6.70
2022-08-28T13:55:53.613Z,6.05
2022-08-28T13:58:38.696Z,5.40
2022-08-28T14:01:43.958Z,5.80
2022-08-28T14:04:29.165Z,6.20
2022-08-28T14:07:15.358Z,6.97
2022-08-28T14:10:00.177Z,6.32
2022-08-28T14:12:47.108Z,6.68
2022-08-28T14:15:32.361Z,7.18
2022-08-28T14:18:17.836Z,6.47
2022-08-28T14:21:05.116Z,6.95
2022-08-28T14:23:49.912Z,6.50
2022-08-28T14:26:35.365Z,6.53
2022-08-28T14:29:21.174Z,6.18
2022-08-28T14:32:06.321Z,5.95
2022-08-28T14:34:51.585Z,6.30
2022-08-28T14:37:36.578Z,6.15
2022-08-28T14:40:21.461Z,6.25
2022-08-28T14:43:09.747Z,5.57
2022-08-28T14:45:54.488Z,6.07
2022-08-28T14:48:39.495Z,7.13
2022-08-28T14:51:24.907Z,7.03
2022-08-28T14:54:12.914Z,7.65
2022-08-28T14:56:57.558Z,6.35
2022-08-28T14:59:43.001Z,6.22
2022-08-28T15:02:28.279Z,6.32
2022-08-28T15:05:13.031Z,6.22
2022-08-28T15:07:57.901Z,6.90
2022-08-28T15:10:44.167Z,6.05
2022-08-28T15:13:31.385Z,7.32
2022-08-28T15:16:29.320Z,6.40
2022-08-28T15:19:17.311Z,6.80
2022-08-28T15:22:03.643Z,6.55
2022-08-28T15:24:51.459Z,6.78
2022-08-28T15:27:40.748Z,6.55
2022-08-28T15:30:25.595Z,6.55
2022-08-28T15:33:10.873Z,7.10
2022-08-28T15:35:56.375Z,6.95
2022-08-28T15:39:00.146Z,7.68
2022-08-28T15:41:47.068Z,7.78
2022-08-28T15:44:32.661Z,6.65
2022-08-28T15:47:17.674Z,7.20
2022-08-28T15:50:04.582Z,7.80
2022-08-28T15:52:49.624Z,7.47
2022-08-28T15:55:38.120Z,7.18
2022-08-28T15:58:23.177Z,7.57
2022-08-28T16:01:08.415Z,6.40
2022-08-28T16:03:53.292Z,7.53
2022-08-28T16:06:38.127Z,7.68
2022-08-28T16:09:23.489Z,7.95
2022-08-28T16:12:08.463Z,7.10
2022-08-28T16:14:53.711Z,7.55
2022-08-28T16:17:38.403Z,8.20
2022-08-28T16:20:24.900Z,7.97
2022-08-28T16:23:11.984Z,8.57
2022-08-28T16:25:56.917Z,7.53
2022-08-28T16:28:42.981Z,7.75
2022-08-28T16:31:28.059Z,8.02
2022-08-28T16:34:13.920Z,8.35
2022-08-28T16:36:59.516Z,8.77
2022-08-28T16:39:45.028Z,8.68
2022-08-28T16:42:32.872Z,8.82
2022-08-28T16:45:18.905Z,7.82
2022-08-28T16:48:04.871Z,8.65
2022-08-28T16:50:49.545Z,9.52
2022-08-28T16:53:34.638Z,8.20
2022-08-28T16:56:19.710Z,7.43
2022-08-28T16:59:04.683Z,8.05
2022-08-28T17:01:55.690Z,7.90
2022-08-28T17:04:40.900Z,8.82
2022-08-28T17:07:26.476Z,8.68
2022-08-28T17:10:15.120Z,8.80
2022-08-28T17:13:01.016Z,8.15
2022-08-28T17:15:46.250Z,9.10
2022-08-28T17:18:31.622Z,9.77
2022-08-28T17:21:35.048Z,9.73
2022-08-28T17:24:20.073Z,10.48
2022-08-28T17:27:06.252Z,10.57
2022-08-28T17:29:51.132Z,10.43
2022-08-28T17:32:36.657Z,10.38
2022-08-28T17:35:22.413Z,11.43
2022-08-28T17:38:08.539Z,11.50
2022-08-28T17:40:56.174Z,10.50
2022-08-28T17:43:40.949Z,10.32
2022-08-28T17:46:26.029Z,10.27
2022-08-28T17:49:10.942Z,11.60
2022-08-28T17:51:56.299Z,11.57
2022-08-28T17:54:40.906Z,11.32
2022-08-28T17:57:29.870Z,10.23
2022-08-28T18:00:16.413Z,10.10
2022-08-28T18:03:02.100Z,11.10
2022-08-28T18:05:46.865Z,15.32
2022-08-28T18:08:31.889Z,12.85
2022-08-28T18:11:18.936Z,14.05
2022-08-28T18:14:04.990Z,12.77
2022-08-28T18:16:50.677Z,12.60
2022-08-28T18:19:36.848Z,12.32
2022-08-28T18:22:25.359Z,12.00
2022-08-28T18:25:31.397Z,11.75
2022-08-28T18:28:22.221Z,12.10
2022-08-28T18:31:07.506Z,12.05
2022-08-28T18:33:53.744Z,12.85
2022-08-28T18:36:40.883Z,12.95
2022-08-28T18:39:29.953Z,13.20
2022-08-28T18:42:15.698Z,13.70
2022-08-28T18:45:26.751Z,13.70
2022-08-28T18:48:11.948Z,14.80
2022-08-28T18:50:56.792Z,14.20
2022-08-28T18:53:43.261Z,14.98
2022-08-28T18:56:31.691Z,14.23
2022-08-28T18:59:17.685Z,13.13
2022-08-28T19:02:02.994Z,15.00
2022-08-28T19:04:48.091Z,14.38
2022-08-28T19:07:33.422Z,14.68
2022-08-28T19:10:32.713Z,14.00
2022-08-28T19:13:19.833Z,15.55
2022-08-28T19:16:05.417Z,13.85
2022-08-28T19:18:52.991Z,13.25
2022-08-28T19:21:38.389Z,14.50
2022-08-28T19:24:23.714Z,14.45
2022-08-28T19:27:08.946Z,13.98
2022-08-28T19:29:54.115Z,13.10
2022-08-28T19:32:43.663Z,14.15
2022-08-28T19:35:28.530Z,14.25
2022-08-28T19:38:13.426Z,14.35
2022-08-28T19:40:58.218Z,14.90
2022-08-28T19:43:44.663Z,14.68
2022-08-28T19:46:29.980Z,14.77
2022-08-28T19:49:14.792Z,14.30
2022-08-28T19:51:59.771Z,14.95
2022-08-28T19:54:44.618Z,15.63
2022-08-28T19:57:29.638Z,14.52
2022-08-28T20:00:17.798Z,15.90
2022-08-28T20:03:02.591Z,15.40
2022-08-28T20:05:50.625Z,14.18
2022-08-28T20:08:35.988Z,15.05
2022-08-28T20:11:25.418Z,15.15
2022-08-28T20:14:16.638Z,15.65
2022-08-28T20:17:01.366Z,14.68
2022-08-28T20:19:47.109Z,14.98
2022-08-28T20:22:31.826Z,14.45
2022-08-28T20:25:17.632Z,15.45
2022-08-28T20:28:02.659Z,15.13
2022-08-28T20:30:47.385Z,15.25
2022-08-28T20:33:32.743Z,14.57
2022-08-28T20:36:21.288Z,15.80
2022-08-28T20:39:08.953Z,16.67
2022-08-28T20:41:53.895Z,16.30
2022-08-28T20:44:39.352Z,15.55
2022-08-28T20:47:25.353Z,15.05
2022-08-28T20:50:11.722Z,15.43
2022-08-28T20:52:56.446Z,15.95
2022-08-28T20:55:41.606Z,14.57
2022-08-28T20:58:27.124Z,15.18
2022-08-28T21:01:12.394Z,15.32
2022-08-28T21:03:57.311Z,16.33
2022-08-28T21:06:45.911Z,14.55
2022-08-28T21:09:35.887Z,14.60
2022-08-28T21:12:37.857Z,15.18
2022-08-28T21:15:22.883Z,15.65
2022-08-28T21:18:09.311Z,15.05
2022-08-28T21:20:56.200Z,15.02
2022-08-28T21:23:42.255Z,15.13
2022-08-28T21:26:27.055Z,14.25
2022-08-28T21:29:14.035Z,15.35
2022-08-28T21:31:59.358Z,14.70
2022-08-28T21:34:44.203Z,14.55
2022-08-28T21:37:29.634Z,14.70
2022-08-28T21:40:16.809Z,15.00
2022-08-28T21:43:01.998Z,15.27
2022-08-28T21:45:57.721Z,15.73
2022-08-28T21:48:47.299Z,14.32
2022-08-28T21:51:32.242Z,15.45
2022-08-28T21:54:18.938Z,15.18
2022-08-28T21:57:03.829Z,15.20
2022-08-28T21:59:48.801Z,14.75
2022-08-28T22:02:33.841Z,15.50
2022-08-28T22:05:19.333Z,14.82
2022-08-28T22:08:04.693Z,14.10
2022-08-28T22:10:49.550Z,13.93
2022-08-28T22:13:34.971Z,14.80
2022-08-28T22:16:20.906Z,14.88
2022-08-28T22:19:06.037Z,15.55
2022-08-28T22:22:09.585Z,15.23
2022-08-28T22:24:54.620Z,14.60
2022-08-28T22:27:39.682Z,14.10
2022-08-28T22:30:24.760Z,13.93
2022-08-28T22:33:10.813Z,14.10
2022-08-28T22:35:55.918Z,14.77
2022-08-28T22:38:41.406Z,13.90
2022-08-28T22:41:32.698Z,14.68
2022-08-28T22:44:17.425Z,14.52
2022-08-28T22:47:03.074Z,14.23
2022-08-28T22:49:49.196Z,14.95
2022-08-28T22:52:34.586Z,15.00
2022-08-28T22:55:20.455Z,16.67
2022-08-28T22:58:05.698Z,15.15
2022-08-28T23:00:51.872Z,14.10
2022-08-28T23:03:37.267Z,15.32
2022-08-28T23:06:22.056Z,14.80
2022-08-28T23:09:08.201Z,14.75
2022-08-28T23:11:53.106Z,14.30
2022-08-28T23:14:38.272Z,14.32
2022-08-28T23:17:23.114Z,14.65
2022-08-28T23:20:12.364Z,14.73
2022-08-28T23:22:58.353Z,14.10
2022-08-28T23:25:44.050Z,14.60
2022-08-28T23:28:29.034Z,15.27
2022-08-28T23:31:14.437Z,14.15
2022-08-28T23:33:59.201Z,14.80
2022-08-28T23:36:44.456Z,14.43
2022-08-28T23:39:29.289Z,14.90
2022-08-28T23:42:15.665Z,14.73
2022-08-28T23:45:00.797Z,14.90
2022-08-28T23:47:46.509Z,15.13
2022-08-28T23:50:31.472Z,14.63
2022-08-28T23:53:16.796Z,14.23
2022-08-28T23:56:02.058Z,15.13
2022-08-28T23:58:46.796Z,13.15
